createdAt,value
2022-09-23T00:00:00.503Z,100708
2022-09-23T00:01:01.409Z,100702
2022-09-23T00:02:00.400Z,100702
2022-09-23T00:03:00.342Z,100702
2022-09-23T00:04:00.329Z,100702
2022-09-23T00:05:00.343Z,100702
2022-09-23T00:06:01.888Z,100698
2022-09-23T00:07:00.272Z,100698
2022-09-23T00:08:00.354Z,100698
2022-09-23T00:09:00.274Z,100698
2022-09-23T00:10:00.271Z,100698
2022-09-23T00:11:07.775Z,100695
2022-09-23T00:12:00.370Z,100695
2022-09-23T00:13:00.291Z,100695
2022-09-23T00:14:00.310Z,100695
2022-09-23T00:15:00.284Z,100695
2022-09-23T00:16:01.550Z,100703
2022-09-23T00:17:00.417Z,100703
2022-09-23T00:18:00.277Z,100703
2022-09-23T00:19:00.896Z,100703
2022-09-23T00:20:00.413Z,100703
2022-09-23T00:21:09.204Z,100696
2022-09-23T00:22:00.268Z,100696
2022-09-23T00:23:00.271Z,100696
2022-09-23T00:24:00.400Z,100696
2022-09-23T00:25:00.271Z,100696
2022-09-23T00:26:01.114Z,100696
2022-09-23T00:27:00.384Z,100696
2022-09-23T00:28:00.448Z,100696
2022-09-23T00:29:00.294Z,100696
2022-09-23T00:30:00.530Z,100696
2022-09-23T00:31:02.802Z,100697
2022-09-23T00:32:00.367Z,100697
2022-09-23T00:33:00.286Z,100697
2022-09-23T00:34:00.515Z,100697
2022-09-23T00:35:00.258Z,100697
2022-09-23T00:36:00.696Z,100691
2022-09-23T00:37:00.279Z,100691
2022-09-23T00:38:00.262Z,100691
2022-09-23T00:39:00.343Z,100691
2022-09-23T00:40:00.489Z,100691
2022-09-23T00:41:00.377Z,100688
2022-09-23T00:42:00.277Z,100688
2022-09-23T00:43:00.289Z,100688
2022-09-23T00:44:00.735Z,100688
2022-09-23T00:45:00.611Z,100688
2022-09-23T00:46:00.401Z,100688
2022-09-23T00:47:00.364Z,100688
2022-09-23T00:48:01.342Z,100688
2022-09-23T00:49:03.156Z,100688
2022-09-23T00:50:10.184Z,100688
2022-09-23T00:51:00.619Z,100686
2022-09-23T00:52:05.667Z,100686
2022-09-23T00:53:00.969Z,100686
2022-09-23T00:54:01.102Z,100686
2022-09-23T00:55:01.818Z,100686
2022-09-23T00:56:01.944Z,100681
2022-09-23T00:57:00.562Z,100681
2022-09-23T00:58:01.625Z,100681
2022-09-23T00:59:00.722Z,100681
2022-09-23T01:00:00.498Z,100681
2022-09-23T01:01:01.298Z,100681
2022-09-23T01:02:01.239Z,100681
2022-09-23T01:03:01.151Z,100681
2022-09-23T01:04:00.389Z,100681
2022-09-23T01:05:00.846Z,100681
2022-09-23T01:06:00.306Z,100681
2022-09-23T01:07:00.259Z,100681
2022-09-23T01:08:01.460Z,100681
2022-09-23T01:09:00.471Z,100681
2022-09-23T01:10:00.893Z,100681
2022-09-23T01:11:10.175Z,100674
2022-09-23T01:12:10.185Z,100674
2022-09-23T01:13:07.842Z,100674
2022-09-23T01:14:03.559Z,100674
2022-09-23T01:15:10.173Z,100674
2022-09-23T01:16:00.247Z,100676
2022-09-23T01:17:10.187Z,100676
2022-09-23T01:18:10.186Z,100676
2022-09-23T01:19:10.180Z,100676
2022-09-23T01:20:10.179Z,100676
2022-09-23T01:21:10.178Z,100673
2022-09-23T01:22:10.174Z,100673
2022-09-23T01:23:00.256Z,100673
2022-09-23T01:24:10.174Z,100673
2022-09-23T01:25:10.195Z,100673
2022-09-23T01:26:07.707Z,100665
2022-09-23T01:27:00.244Z,100665
2022-09-23T01:28:01.281Z,100665
2022-09-23T01:29:07.672Z,100665
2022-09-23T01:30:05.786Z,100665
2022-09-23T01:31:10.242Z,100663
2022-09-23T01:32:07.642Z,100663
2022-09-23T01:33:00.243Z,100663
2022-09-23T01:34:10.188Z,100663
2022-09-23T01:35:00.251Z,100663
2022-09-23T01:36:10.177Z,100659
2022-09-23T01:37:10.173Z,100659
2022-09-23T01:38:00.263Z,100659
2022-09-23T01:39:07.732Z,100659
2022-09-23T01:40:10.252Z,100659
2022-09-23T01:41:10.167Z,100653
2022-09-23T01:42:05.329Z,100653
2022-09-23T01:43:04.782Z,100653
2022-09-23T01:44:05.156Z,100653
2022-09-23T01:45:08.014Z,100653
2022-09-23T01:46:02.868Z,100648
2022-09-23T01:47:04.460Z,100648
2022-09-23T01:48:10.374Z,100648
2022-09-23T01:49:07.295Z,100648
2022-09-23T01:50:01.266Z,100648
2022-09-23T01:51:10.183Z,100639
2022-09-23T01:52:07.076Z,100639
2022-09-23T01:53:04.501Z,100639
2022-09-23T01:54:01.302Z,100639
2022-09-23T01:55:02.914Z,100639
2022-09-23T01:56:04.225Z,100636
2022-09-23T01:57:03.078Z,100636
2022-09-23T01:58:04.726Z,100636
2022-09-23T01:59:10.166Z,100636
2022-09-23T02:00:07.605Z,100636
2022-09-23T02:01:02.173Z,100635
2022-09-23T02:02:07.663Z,100635
2022-09-23T02:03:03.680Z,100635
2022-09-23T02:04:04.248Z,100635
2022-09-23T02:05:00.284Z,100635
2022-09-23T02:06:04.466Z,100625
2022-09-23T02:07:03.011Z,100625
2022-09-23T02:08:09.557Z,100625
2022-09-23T02:09:01.473Z,100625
2022-09-23T02:10:05.235Z,100625
2022-09-23T02:11:09.235Z,100623
2022-09-23T02:12:02.072Z,100623
2022-09-23T02:13:05.791Z,100623
2022-09-23T02:14:03.615Z,100623
2022-09-23T02:15:00.321Z,100623
2022-09-23T02:16:02.361Z,100622
2022-09-23T02:17:03.246Z,100622
2022-09-23T02:18:03.695Z,100622
2022-09-23T02:19:06.486Z,100622
2022-09-23T02:20:02.107Z,100622
2022-09-23T02:21:03.424Z,100620
2022-09-23T02:22:04.472Z,100620
2022-09-23T02:23:02.286Z,100620
2022-09-23T02:24:04.859Z,100620
2022-09-23T02:25:01.056Z,100620
2022-09-23T02:26:10.175Z,100621
2022-09-23T02:27:10.178Z,100621
2022-09-23T02:28:10.179Z,100621
2022-09-23T02:29:00.259Z,100621
2022-09-23T02:30:07.843Z,100621
2022-09-23T02:31:10.167Z,100615
2022-09-23T02:32:10.201Z,100615
2022-09-23T02:33:03.705Z,100615
2022-09-23T02:34:10.190Z,100615
2022-09-23T02:35:10.205Z,100615
2022-09-23T02:36:05.677Z,100615
2022-09-23T02:37:10.166Z,100615
2022-09-23T02:38:10.181Z,100615
2022-09-23T02:39:02.295Z,100615
2022-09-23T02:40:00.251Z,100615
2022-09-23T02:41:07.193Z,100619
2022-09-23T02:42:05.332Z,100619
2022-09-23T02:43:01.290Z,100619
2022-09-23T02:44:00.337Z,100619
2022-09-23T02:45:00.416Z,100619
2022-09-23T02:46:01.680Z,100622
2022-09-23T02:47:00.458Z,100622
2022-09-23T02:48:03.727Z,100622
2022-09-23T02:49:03.340Z,100622
2022-09-23T02:50:00.358Z,100622
2022-09-23T02:51:00.652Z,100615
2022-09-23T02:52:01.542Z,100615
2022-09-23T02:53:00.489Z,100615
2022-09-23T02:54:00.398Z,100615
2022-09-23T02:55:00.623Z,100615
2022-09-23T02:56:00.850Z,100611
2022-09-23T02:57:01.318Z,100611
2022-09-23T02:58:01.396Z,100611
2022-09-23T02:59:01.080Z,100611
2022-09-23T03:00:00.432Z,100611
2022-09-23T03:01:10.298Z,100617
2022-09-23T03:02:10.252Z,100617
2022-09-23T03:03:08.950Z,100617
2022-09-23T03:04:00.260Z,100617
2022-09-23T03:05:00.267Z,100617
2022-09-23T03:06:06.915Z,100618
2022-09-23T03:07:04.905Z,100618
2022-09-23T03:08:10.178Z,100618
2022-09-23T03:09:03.333Z,100618
2022-09-23T03:10:00.252Z,100618
2022-09-23T03:11:09.198Z,100624
2022-09-23T03:12:07.779Z,100624
2022-09-23T03:13:01.220Z,100624
2022-09-23T03:14:00.265Z,100624
2022-09-23T03:15:10.185Z,100624
2022-09-23T03:16:10.223Z,100629
2022-09-23T03:17:04.100Z,100629
2022-09-23T03:18:10.204Z,100629
2022-09-23T03:19:07.627Z,100629
2022-09-23T03:20:04.163Z,100629
2022-09-23T03:21:02.752Z,100622
2022-09-23T03:22:05.812Z,100622
2022-09-23T03:23:02.783Z,100622
2022-09-23T03:24:03.016Z,100622
2022-09-23T03:25:05.248Z,100622
2022-09-23T03:26:01.820Z,100619
2022-09-23T03:27:02.778Z,100619
2022-09-23T03:28:01.277Z,100619
2022-09-23T03:29:03.238Z,100619
2022-09-23T03:30:00.652Z,100619
2022-09-23T03:31:00.751Z,100618
2022-09-23T03:32:00.432Z,100618
2022-09-23T03:33:02.797Z,100618
2022-09-23T03:34:01.606Z,100618
2022-09-23T03:35:00.947Z,100618
2022-09-23T03:36:03.155Z,100615
2022-09-23T03:37:03.882Z,100615
2022-09-23T03:38:05.634Z,100615
2022-09-23T03:39:10.176Z,100615
2022-09-23T03:40:07.812Z,100615
2022-09-23T03:41:01.834Z,100614
2022-09-23T03:42:05.611Z,100614
2022-09-23T03:43:00.897Z,100614
2022-09-23T03:44:00.546Z,100614
2022-09-23T03:45:03.083Z,100614
2022-09-23T03:46:00.355Z,100602
2022-09-23T03:47:00.889Z,100602
2022-09-23T03:48:00.595Z,100602
2022-09-23T03:49:07.322Z,100602
2022-09-23T03:50:00.654Z,100602
2022-09-23T03:51:07.488Z,100598
2022-09-23T03:52:00.357Z,100598
2022-09-23T03:53:00.487Z,100598
2022-09-23T03:54:00.280Z,100598
2022-09-23T03:55:00.306Z,100598
2022-09-23T03:56:00.394Z,100598
2022-09-23T03:57:00.554Z,100598
2022-09-23T03:58:00.309Z,100598
2022-09-23T03:59:00.315Z,100598
2022-09-23T04:00:00.615Z,100598
2022-09-23T04:01:00.336Z,100602
2022-09-23T04:02:00.399Z,100602
2022-09-23T04:03:00.417Z,100602
2022-09-23T04:04:00.420Z,100602
2022-09-23T04:05:00.528Z,100602
2022-09-23T04:06:00.271Z,100604
2022-09-23T04:07:00.455Z,100604
2022-09-23T04:08:00.392Z,100604
2022-09-23T04:09:00.345Z,100604
2022-09-23T04:10:00.400Z,100604
2022-09-23T04:11:00.952Z,100610
2022-09-23T04:12:00.356Z,100610
2022-09-23T04:13:00.253Z,100610
2022-09-23T04:14:00.500Z,100610
2022-09-23T04:15:00.404Z,100610
2022-09-23T04:16:00.411Z,100608
2022-09-23T04:17:00.281Z,100608
2022-09-23T04:18:00.269Z,100608
2022-09-23T04:19:00.351Z,100608
2022-09-23T04:20:00.347Z,100608
2022-09-23T04:21:00.278Z,100610
2022-09-23T04:22:00.415Z,100610
2022-09-23T04:23:00.272Z,100610
2022-09-23T04:24:00.393Z,100610
2022-09-23T04:25:00.282Z,100610
2022-09-23T04:26:00.314Z,100609
2022-09-23T04:27:00.281Z,100609
2022-09-23T04:28:00.387Z,100609
2022-09-23T04:29:00.774Z,100609
2022-09-23T04:30:00.267Z,100609
2022-09-23T04:31:04.054Z,100612
2022-09-23T04:32:00.426Z,100612
2022-09-23T04:33:00.307Z,100612
2022-09-23T04:34:00.298Z,100612
2022-09-23T04:35:00.289Z,100612
2022-09-23T04:36:00.343Z,100613
2022-09-23T04:37:00.351Z,100613
2022-09-23T04:38:00.298Z,100613
2022-09-23T04:39:00.674Z,100613
2022-09-23T04:40:00.446Z,100613
2022-09-23T04:41:00.287Z,100615
2022-09-23T04:42:00.324Z,100615
2022-09-23T04:43:00.278Z,100615
2022-09-23T04:44:00.419Z,100615
2022-09-23T04:45:00.281Z,100615
2022-09-23T04:46:01.243Z,100627
2022-09-23T04:47:00.364Z,100627
2022-09-23T04:48:00.408Z,100627
2022-09-23T04:49:00.440Z,100627
2022-09-23T04:50:00.292Z,100627
2022-09-23T04:51:01.262Z,100622
2022-09-23T04:52:00.396Z,100622
2022-09-23T04:53:00.281Z,100622
2022-09-23T04:54:00.464Z,100622
2022-09-23T04:55:00.267Z,100622
2022-09-23T04:56:04.432Z,100622
2022-09-23T04:57:00.262Z,100622
2022-09-23T04:58:00.278Z,100622
2022-09-23T04:59:00.436Z,100622
2022-09-23T05:00:00.373Z,100622
2022-09-23T05:01:10.312Z,100625
2022-09-23T05:02:00.307Z,100625
2022-09-23T05:03:00.282Z,100625
2022-09-23T05:04:01.756Z,100625
2022-09-23T05:05:00.315Z,100625
2022-09-23T05:06:00.266Z,100625
2022-09-23T05:07:03.273Z,100625
2022-09-23T05:08:00.377Z,100625
2022-09-23T05:09:00.970Z,100625
2022-09-23T05:10:00.289Z,100625
2022-09-23T05:11:03.237Z,100629
2022-09-23T05:12:00.385Z,100629
2022-09-23T05:13:00.260Z,100629
2022-09-23T05:14:00.284Z,100629
2022-09-23T05:15:01.047Z,100629
2022-09-23T05:16:01.750Z,100631
2022-09-23T05:17:00.266Z,100631
2022-09-23T05:18:00.282Z,100631
2022-09-23T05:19:00.703Z,100631
2022-09-23T05:20:00.366Z,100631
2022-09-23T05:21:00.879Z,100629
2022-09-23T05:22:00.269Z,100629
2022-09-23T05:23:00.266Z,100629
2022-09-23T05:24:00.385Z,100629
2022-09-23T05:25:00.326Z,100629
2022-09-23T05:26:02.136Z,100632
2022-09-23T05:27:00.264Z,100632
2022-09-23T05:28:00.403Z,100632
2022-09-23T05:29:00.484Z,100632
2022-09-23T05:30:00.296Z,100632
2022-09-23T05:31:04.492Z,100628
2022-09-23T05:32:00.379Z,100628
2022-09-23T05:33:00.263Z,100628
2022-09-23T05:34:01.800Z,100628
2022-09-23T05:35:00.260Z,100628
2022-09-23T05:36:00.761Z,100628
2022-09-23T05:37:00.357Z,100628
2022-09-23T05:38:00.267Z,100628
2022-09-23T05:39:00.719Z,100628
2022-09-23T05:40:00.368Z,100628
2022-09-23T05:41:01.135Z,100633
2022-09-23T05:42:00.282Z,100633
2022-09-23T05:43:00.274Z,100633
2022-09-23T05:44:00.584Z,100633
2022-09-23T05:45:00.291Z,100633
2022-09-23T05:46:05.874Z,100636
2022-09-23T05:47:00.414Z,100636
2022-09-23T05:48:00.377Z,100636
2022-09-23T05:49:03.046Z,100636
2022-09-23T05:50:00.738Z,100636
2022-09-23T05:51:00.465Z,100640
2022-09-23T05:52:00.351Z,100640
2022-09-23T05:53:00.277Z,100640
2022-09-23T05:54:00.452Z,100640
2022-09-23T05:55:00.260Z,100640
2022-09-23T05:56:00.509Z,100646
2022-09-23T05:57:02.745Z,100646
2022-09-23T05:58:00.328Z,100646
2022-09-23T05:59:00.944Z,100646
2022-09-23T06:00:00.411Z,100646
2022-09-23T06:01:00.392Z,100647
2022-09-23T06:02:00.321Z,100647
2022-09-23T06:03:00.387Z,100647
2022-09-23T06:04:01.154Z,100647
2022-09-23T06:05:00.267Z,100647
2022-09-23T06:06:00.272Z,100653
2022-09-23T06:07:03.309Z,100653
2022-09-23T06:08:00.450Z,100653
2022-09-23T06:09:00.607Z,100653
2022-09-23T06:10:00.280Z,100653
2022-09-23T06:11:08.051Z,100664
2022-09-23T06:12:00.376Z,100664
2022-09-23T06:13:00.266Z,100664
2022-09-23T06:14:00.826Z,100664
2022-09-23T06:15:00.270Z,100664
2022-09-23T06:16:00.724Z,100670
2022-09-23T06:17:00.295Z,100670
2022-09-23T06:18:00.662Z,100670
2022-09-23T06:19:05.046Z,100670
2022-09-23T06:20:00.536Z,100670
2022-09-23T06:21:01.282Z,100676
2022-09-23T06:22:00.267Z,100676
2022-09-23T06:23:07.111Z,100676
2022-09-23T06:24:00.543Z,100676
2022-09-23T06:25:00.292Z,100676
2022-09-23T06:26:01.106Z,100674
2022-09-23T06:27:00.253Z,100674
2022-09-23T06:28:00.584Z,100674
2022-09-23T06:29:00.761Z,100674
2022-09-23T06:30:00.259Z,100674
2022-09-23T06:31:01.532Z,100682
2022-09-23T06:32:00.439Z,100682
2022-09-23T06:33:00.259Z,100682
2022-09-23T06:34:08.091Z,100682
2022-09-23T06:35:00.281Z,100682
2022-09-23T06:36:01.503Z,100684
2022-09-23T06:37:06.435Z,100684
2022-09-23T06:38:03.750Z,100684
2022-09-23T06:39:00.631Z,100684
2022-09-23T06:40:00.379Z,100684
2022-09-23T06:41:00.746Z,100687
2022-09-23T06:42:00.361Z,100687
2022-09-23T06:43:01.126Z,100687
2022-09-23T06:44:00.403Z,100687
2022-09-23T06:45:00.281Z,100687
2022-09-23T06:46:01.420Z,100691
2022-09-23T06:47:00.407Z,100691
2022-09-23T06:48:00.373Z,100691
2022-09-23T06:49:00.281Z,100691
2022-09-23T06:50:00.269Z,100691
2022-09-23T06:51:01.639Z,100692
2022-09-23T06:52:00.340Z,100692
2022-09-23T06:53:00.347Z,100692
2022-09-23T06:54:00.400Z,100692
2022-09-23T06:55:00.462Z,100692
2022-09-23T06:56:01.123Z,100696
2022-09-23T06:57:00.283Z,100696
2022-09-23T06:58:00.279Z,100696
2022-09-23T06:59:00.259Z,100696
2022-09-23T07:00:00.459Z,100696
2022-09-23T07:01:02.462Z,100695
2022-09-23T07:02:00.650Z,100695
2022-09-23T07:03:00.620Z,100695
2022-09-23T07:04:00.761Z,100695
2022-09-23T07:05:00.396Z,100695
2022-09-23T07:06:00.842Z,100698
2022-09-23T07:07:00.798Z,100698
2022-09-23T07:08:00.643Z,100698
2022-09-23T07:09:00.546Z,100698
2022-09-23T07:10:00.395Z,100698
2022-09-23T07:11:01.954Z,100699
2022-09-23T07:12:00.573Z,100699
2022-09-23T07:13:00.949Z,100699
2022-09-23T07:14:00.523Z,100699
2022-09-23T07:15:00.613Z,100699
2022-09-23T07:16:00.763Z,100705
2022-09-23T07:17:00.546Z,100705
2022-09-23T07:18:00.439Z,100705
2022-09-23T07:19:00.457Z,100705
2022-09-23T07:20:00.553Z,100705
2022-09-23T07:21:04.873Z,100705
2022-09-23T07:22:00.483Z,100705
2022-09-23T07:23:00.415Z,100705
2022-09-23T07:24:00.560Z,100705
2022-09-23T07:25:00.388Z,100705
2022-09-23T07:26:00.490Z,100704
2022-09-23T07:27:00.414Z,100704
2022-09-23T07:28:00.512Z,100704
2022-09-23T07:29:01.108Z,100704
2022-09-23T07:30:00.446Z,100704
2022-09-23T07:31:05.335Z,100706
2022-09-23T07:32:12.021Z,100706
2022-09-23T07:33:00.452Z,100706
2022-09-23T07:34:01.025Z,100706
2022-09-23T07:35:00.470Z,100706
2022-09-23T07:36:04.771Z,100709
2022-09-23T07:37:00.409Z,100709
2022-09-23T07:38:00.433Z,100709
2022-09-23T07:39:00.504Z,100709
2022-09-23T07:40:00.528Z,100709
2022-09-23T07:41:01.532Z,100716
2022-09-23T07:42:00.498Z,100716
2022-09-23T07:43:00.393Z,100716
2022-09-23T07:44:00.722Z,100716
2022-09-23T07:45:00.479Z,100716
2022-09-23T07:46:02.808Z,100715
2022-09-23T07:47:00.557Z,100715
2022-09-23T07:48:00.845Z,100715
2022-09-23T07:49:00.411Z,100715
2022-09-23T07:50:00.402Z,100715
2022-09-23T07:51:05.685Z,100724
2022-09-23T07:52:00.442Z,100724
2022-09-23T07:53:00.458Z,100724
2022-09-23T07:54:00.712Z,100724
2022-09-23T07:55:00.374Z,100724
2022-09-23T07:56:00.415Z,100717
2022-09-23T07:57:00.812Z,100717
2022-09-23T07:58:00.481Z,100717
2022-09-23T07:59:00.835Z,100717
2022-09-23T08:00:00.601Z,100717
2022-09-23T08:06:02.362Z,100724
2022-09-23T08:07:01.624Z,100724
2022-09-23T08:08:00.404Z,100724
2022-09-23T08:09:00.543Z,100724
2022-09-23T08:10:00.912Z,100724
2022-09-23T08:11:01.367Z,100730
2022-09-23T08:12:00.474Z,100730
2022-09-23T08:13:00.387Z,100730
2022-09-23T08:14:00.408Z,100730
2022-09-23T08:15:00.451Z,100730
2022-09-23T08:16:00.533Z,100730
2022-09-23T08:17:00.393Z,100730
2022-09-23T08:18:00.420Z,100730
2022-09-23T08:19:00.988Z,100730
2022-09-23T08:20:00.637Z,100730
2022-09-23T08:21:00.446Z,100731
2022-09-23T08:22:00.385Z,100731
2022-09-23T08:23:00.446Z,100731
2022-09-23T08:24:00.520Z,100731
2022-09-23T08:25:00.462Z,100731
2022-09-23T08:26:01.072Z,100737
2022-09-23T08:27:00.407Z,100737
2022-09-23T08:28:00.513Z,100737
2022-09-23T08:29:00.743Z,100737
2022-09-23T08:30:00.411Z,100737
2022-09-23T08:31:00.523Z,100739
2022-09-23T08:32:00.487Z,100739
2022-09-23T08:33:00.507Z,100739
2022-09-23T08:34:00.529Z,100739
2022-09-23T08:35:00.363Z,100739
2022-09-23T08:36:01.064Z,100740
2022-09-23T08:37:00.505Z,100740
2022-09-23T08:38:00.440Z,100740
2022-09-23T08:39:00.584Z,100740
2022-09-23T08:40:00.470Z,100740
2022-09-23T08:41:04.746Z,100737
2022-09-23T08:42:10.241Z,100737
2022-09-23T08:43:00.435Z,100737
2022-09-23T08:44:03.500Z,100737
2022-09-23T08:45:02.174Z,100737
2022-09-23T08:46:03.312Z,100744
2022-09-23T08:47:06.861Z,100744
2022-09-23T08:48:04.533Z,100744
2022-09-23T08:49:00.978Z,100744
2022-09-23T08:50:10.233Z,100744
2022-09-23T08:51:03.754Z,100748
2022-09-23T08:52:04.212Z,100748
2022-09-23T08:53:03.874Z,100748
2022-09-23T08:54:00.568Z,100748
2022-09-23T08:55:01.168Z,100748
2022-09-23T08:56:10.303Z,100754
2022-09-23T08:57:01.320Z,100754
2022-09-23T08:58:25.055Z,100754
2022-09-23T08:59:03.652Z,100754
2022-09-23T09:00:01.443Z,100754
2022-09-23T09:01:10.264Z,100765
2022-09-23T09:02:05.079Z,100765
2022-09-23T09:03:00.569Z,100765
2022-09-23T09:04:01.914Z,100765
2022-09-23T09:05:04.768Z,100765
2022-09-23T09:06:00.544Z,100758
2022-09-23T09:07:31.791Z,100758
2022-09-23T09:08:00.709Z,100758
2022-09-23T09:09:01.435Z,100758
2022-09-23T09:10:03.757Z,100758
2022-09-23T09:11:01.675Z,100759
2022-09-23T09:12:05.232Z,100759
2022-09-23T09:13:02.896Z,100759
2022-09-23T09:14:04.831Z,100759
2022-09-23T09:15:02.450Z,100759
2022-09-23T09:16:09.275Z,100757
2022-09-23T09:17:03.534Z,100757
2022-09-23T09:18:03.152Z,100757
2022-09-23T09:19:01.025Z,100757
2022-09-23T09:20:06.138Z,100757
2022-09-23T09:21:10.226Z,100763
2022-09-23T09:22:03.022Z,100763
2022-09-23T09:23:06.667Z,100763
2022-09-23T09:24:01.350Z,100763
2022-09-23T09:25:04.984Z,100763
2022-09-23T09:26:01.130Z,100757
2022-09-23T09:27:08.035Z,100757
2022-09-23T09:28:01.885Z,100757
2022-09-23T09:29:11.392Z,100757
2022-09-23T09:30:00.811Z,100757
2022-09-23T09:31:01.353Z,100754
2022-09-23T09:32:10.102Z,100754
2022-09-23T09:33:02.785Z,100754
2022-09-23T09:34:04.041Z,100754
2022-09-23T09:35:06.642Z,100754
2022-09-23T09:36:10.232Z,100748
2022-09-23T09:37:06.722Z,100748
2022-09-23T09:38:00.435Z,100748
2022-09-23T09:39:01.030Z,100748
2022-09-23T09:40:00.790Z,100748
2022-09-23T09:41:08.022Z,100750
2022-09-23T09:42:00.859Z,100750
2022-09-23T09:43:01.012Z,100750
2022-09-23T09:44:01.619Z,100750
2022-09-23T09:45:02.695Z,100750
2022-09-23T09:46:01.346Z,100739
2022-09-23T09:47:07.754Z,100739
2022-09-23T09:48:08.964Z,100739
2022-09-23T09:49:06.162Z,100739
2022-09-23T09:50:10.224Z,100739
2022-09-23T09:51:10.221Z,100747
2022-09-23T09:52:10.227Z,100747
2022-09-23T09:53:10.164Z,100747
2022-09-23T09:54:10.169Z,100747
2022-09-23T09:55:10.213Z,100747
2022-09-23T09:56:05.283Z,100743
2022-09-23T09:57:03.465Z,100743
2022-09-23T09:58:03.109Z,100743
2022-09-23T09:59:07.310Z,100743
2022-09-23T10:00:10.225Z,100743
2022-09-23T10:01:00.614Z,100747
2022-09-23T10:02:10.157Z,100747
2022-09-23T10:03:02.225Z,100747
2022-09-23T10:04:02.496Z,100747
2022-09-23T10:05:04.346Z,100747
2022-09-23T10:06:10.172Z,100750
2022-09-23T10:07:10.175Z,100750
2022-09-23T10:08:10.170Z,100750
2022-09-23T10:10:31.682Z,100750
2022-09-23T10:11:10.114Z,100748
2022-09-23T10:12:03.377Z,100748
2022-09-23T10:13:10.118Z,100748
2022-09-23T10:14:03.105Z,100748
2022-09-23T10:15:00.261Z,100748
2022-09-23T10:16:00.917Z,100750
2022-09-23T10:17:01.527Z,100750
2022-09-23T10:18:00.393Z,100750
2022-09-23T10:19:01.694Z,100750
2022-09-23T10:20:05.347Z,100750
2022-09-23T10:21:10.086Z,100743
2022-09-23T10:22:02.914Z,100743
2022-09-23T10:23:05.063Z,100743
2022-09-23T10:24:01.791Z,100743
2022-09-23T10:25:01.721Z,100743
2022-09-23T10:26:01.702Z,100740
2022-09-23T10:27:09.382Z,100740
2022-09-23T10:28:10.107Z,100740
2022-09-23T10:29:02.134Z,100740
2022-09-23T10:30:02.399Z,100740
2022-09-23T10:31:05.586Z,100738
2022-09-23T10:32:10.115Z,100738
2022-09-23T10:33:00.375Z,100738
2022-09-23T10:34:01.418Z,100738
2022-09-23T10:35:10.117Z,100738
2022-09-23T10:36:00.262Z,100740
2022-09-23T10:37:02.213Z,100740
2022-09-23T10:38:00.441Z,100740
2022-09-23T10:39:01.371Z,100740
2022-09-23T10:40:09.719Z,100740
2022-09-23T10:41:01.284Z,100736
2022-09-23T10:42:03.948Z,100736
2022-09-23T10:43:06.464Z,100736
2022-09-23T10:44:01.320Z,100736
2022-09-23T10:45:10.150Z,100736
2022-09-23T10:46:02.750Z,100737
2022-09-23T10:47:08.391Z,100737
2022-09-23T10:48:03.520Z,100737
2022-09-23T10:49:10.132Z,100737
2022-09-23T10:50:09.878Z,100737
2022-09-23T10:51:06.371Z,100740
2022-09-23T10:52:10.172Z,100740
2022-09-23T10:53:08.704Z,100740
2022-09-23T10:54:06.356Z,100740
2022-09-23T10:55:10.151Z,100740
2022-09-23T10:56:03.540Z,100738
2022-09-23T10:57:03.840Z,100738
2022-09-23T10:58:00.251Z,100738
2022-09-23T10:59:01.250Z,100738
2022-09-23T11:00:09.820Z,100738
2022-09-23T11:01:08.138Z,100738
2022-09-23T11:02:10.154Z,100738
2022-09-23T11:03:07.618Z,100738
2022-09-23T11:04:08.133Z,100738
2022-09-23T11:05:01.357Z,100738
2022-09-23T11:06:10.130Z,100739
2022-09-23T11:07:00.217Z,100739
2022-09-23T11:08:06.932Z,100739
2022-09-23T11:09:10.175Z,100739
2022-09-23T11:10:01.236Z,100739
2022-09-23T11:11:10.132Z,100737
2022-09-23T11:12:10.149Z,100737
2022-09-23T11:13:10.141Z,100737
2022-09-23T11:14:00.230Z,100737
2022-09-23T11:15:10.148Z,100737
2022-09-23T11:16:03.562Z,100733
2022-09-23T11:17:10.204Z,100733
2022-09-23T11:18:07.704Z,100733
2022-09-23T11:19:10.152Z,100733
2022-09-23T11:20:10.156Z,100733
2022-09-23T11:21:07.897Z,100728
2022-09-23T11:22:09.530Z,100728
2022-09-23T11:23:00.226Z,100728
2022-09-23T11:24:01.363Z,100728
2022-09-23T11:25:01.249Z,100728
2022-09-23T11:26:07.409Z,100727
2022-09-23T11:27:10.142Z,100727
2022-09-23T11:28:01.241Z,100727
2022-09-23T11:29:10.218Z,100727
2022-09-23T11:30:06.030Z,100727
2022-09-23T11:31:10.299Z,100722
2022-09-23T11:32:10.152Z,100722
2022-09-23T11:33:10.148Z,100722
2022-09-23T11:34:00.262Z,100722
2022-09-23T11:35:10.172Z,100722
2022-09-23T11:36:04.890Z,100721
2022-09-23T11:37:02.730Z,100721
2022-09-23T11:38:00.251Z,100721
2022-09-23T11:39:01.752Z,100721
2022-09-23T11:40:03.847Z,100721
2022-09-23T11:41:08.420Z,100712
2022-09-23T11:42:00.595Z,100712
2022-09-23T11:43:10.147Z,100712
2022-09-23T11:44:05.614Z,100712
2022-09-23T11:45:05.971Z,100712
2022-09-23T11:46:03.879Z,100709
2022-09-23T11:47:05.030Z,100709
2022-09-23T11:48:03.183Z,100709
2022-09-23T11:49:01.263Z,100709
2022-09-23T11:50:04.185Z,100709
2022-09-23T11:51:04.783Z,100709
2022-09-23T11:54:04.450Z,100709
2022-09-23T11:55:13.395Z,100709
2022-09-23T11:56:02.451Z,100710
2022-09-23T11:57:02.328Z,100710
2022-09-23T11:58:05.365Z,100710
2022-09-23T11:59:05.554Z,100710
2022-09-23T12:00:03.343Z,100710
2022-09-23T12:01:03.394Z,100709
2022-09-23T12:02:12.453Z,100709
2022-09-23T12:03:06.714Z,100709
2022-09-23T12:04:06.105Z,100709
2022-09-23T12:05:02.810Z,100709
2022-09-23T12:06:03.348Z,100708
2022-09-23T12:07:09.881Z,100708
2022-09-23T12:08:10.167Z,100708
2022-09-23T12:09:02.793Z,100708
2022-09-23T12:10:00.253Z,100708
2022-09-23T12:11:00.231Z,100702
2022-09-23T12:12:05.379Z,100702
2022-09-23T12:13:01.244Z,100702
2022-09-23T12:14:10.266Z,100702
2022-09-23T12:15:10.189Z,100702
2022-09-23T12:16:10.373Z,100692
2022-09-23T12:17:00.252Z,100692
2022-09-23T12:18:03.536Z,100692
2022-09-23T12:19:10.134Z,100692
2022-09-23T12:20:01.250Z,100692
2022-09-23T12:21:00.249Z,100681
2022-09-23T12:22:03.509Z,100681
2022-09-23T12:23:00.215Z,100681
2022-09-23T12:24:01.250Z,100681
2022-09-23T12:25:10.242Z,100681
2022-09-23T12:26:01.996Z,100682
2022-09-23T12:27:03.258Z,100682
2022-09-23T12:28:05.268Z,100682
2022-09-23T12:29:01.888Z,100682
2022-09-23T12:30:02.221Z,100682
2022-09-23T12:31:01.737Z,100666
2022-09-23T12:32:00.443Z,100666
2022-09-23T12:33:09.363Z,100666
2022-09-23T12:34:03.288Z,100666
2022-09-23T12:35:00.429Z,100666
2022-09-23T12:36:04.744Z,100671